Time;durP1;ratioP1;P1;durP2;ratioP2;P2;SDS_P1;SDS_P2;PMS_P1;PMS_P2;Temp;Humidity;BMP_temperature;BMP_pressure;BME280_temperature;BME280_humidity;BME280_pressure;Samples;Min_cycle;Max_cycle;Signal;HPM_P1;HPM_P2
2022/08/10 06:00:20;;;;;;;1.92;1.60;;;;;;;;;;10483373;27;1891521;-87
2022/08/10 07:02:44;;;;;;;4.88;3.15;;;;;;;;;;10504579;28;20056;-81
2022/08/10 07:07:49;;;;;;;4.65;2.85;;;;;;;;;;10461075;28;20564;-83
2022/08/10 07:12:52;;;;;;;3.13;1.98;;;;;;;;;;10458750;28;20518;-84
2022/08/10 07:17:53;;;;;;;3.05;2.00;;;;;;;;;;10459655;28;20335;-83
2022/08/10 07:22:57;;;;;;;4.57;2.30;;;;;;;;;;10460817;28;20052;-84
2022/08/10 07:28:09;;;;;;;5.32;2.47;;;;;;;;;;10457276;28;20112;-84
2022/08/10 07:33:18;;;;;;;6.00;4.45;;;;;;;;;;10476330;28;20502;-84
2022/08/10 07:38:26;;;;;;;5.80;2.35;;;;;;;;;;10457559;28;20339;-84
2022/08/10 07:43:34;;;;;;;2.97;1.98;;;;;;;;;;10461248;28;20043;-84
2022/08/10 07:48:57;;;;;;;7.13;3.00;;;;;;;;;;10476855;28;20123;-84
2022/08/10 07:54:14;;;;;;;6.35;2.97;;;;;;;;;;10458982;28;20029;-85
2022/08/10 07:59:27;;;;;;;4.93;2.50;;;;;;;;;;10477999;28;20052;-84
2022/08/10 08:04:41;;;;;;;5.47;2.55;;;;;;;;;;10458972;28;20134;-84
2022/08/10 08:09:45;;;;;;;4.78;2.42;;;;;;;;;;10475063;28;20037;-84
2022/08/10 08:14:47;;;;;;;3.00;2.30;;;;;;;;;;10443775;28;20037;-84
2022/08/10 08:19:49;;;;;;;5.00;2.50;;;;;;;;;;10459092;28;20017;-84
2022/08/10 08:24:53;;;;;;;5.25;3.22;;;;;;;;;;10477868;28;20025;-85
2022/08/10 08:29:56;;;;;;;11.18;9.80;;;;;;;;;;10455730;28;20037;-85
2022/08/10 08:35:23;;;;;;;5.15;2.80;;;;;;;;;;10456843;28;20029;-84
2022/08/10 08:40:36;;;;;;;27.48;5.38;;;;;;;;;;10453994;28;20039;-84
2022/08/10 08:45:39;;;;;;;6.22;3.05;;;;;;;;;;10482298;28;20086;-83
2022/08/10 08:50:52;;;;;;;5.10;2.50;;;;;;;;;;10482837;28;20051;-80
2022/08/10 08:55:59;;;;;;;6.53;3.00;;;;;;;;;;10481662;28;20036;-81
2022/08/10 09:01:10;;;;;;;7.95;2.70;;;;;;;;;;10461247;28;20104;-82
2022/08/10 09:06:28;;;;;;;4.68;2.80;;;;;;;;;;10456667;28;20025;-83
2022/08/10 09:11:47;;;;;;;3.05;2.45;;;;;;;;;;10460505;28;20086;-83
2022/08/10 09:17:16;;;;;;;18.77;12.35;;;;;;;;;;10466124;28;20029;-83
2022/08/10 09:22:36;;;;;;;7.57;3.90;;;;;;;;;;10453248;28;20053;-81
2022/08/10 09:27:44;;;;;;;5.95;3.20;;;;;;;;;;10481507;28;20040;-83
2022/08/10 09:32:45;;;;;;;6.32;2.83;;;;;;;;;;10480001;28;20021;-83
2022/08/10 09:37:52;;;;;;;4.15;2.75;;;;;;;;;;10453571;28;20045;-83
2022/08/10 09:43:12;;;;;;;6.88;4.35;;;;;;;;;;10454046;28;20025;-84
2022/08/10 09:48:22;;;;;;;4.60;2.78;;;;;;;;;;10470961;28;20064;-83
2022/08/10 09:53:44;;;;;;;5.22;2.88;;;;;;;;;;10471038;28;20025;-84
2022/08/10 09:58:57;;;;;;;6.63;2.78;;;;;;;;;;10450871;28;20368;-83
2022/08/10 10:03:58;;;;;;;4.90;3.10;;;;;;;;;;10450695;28;20510;-83
2022/08/10 10:09:02;;;;;;;6.18;3.30;;;;;;;;;;10454593;28;20105;-83
2022/08/10 10:14:18;;;;;;;5.80;2.78;;;;;;;;;;10470599;28;20063;-83
2022/08/10 10:19:26;;;;;;;5.18;2.80;;;;;;;;;;10452154;28;20029;-84
2022/08/10 10:24:47;;;;;;;5.63;2.70;;;;;;;;;;10452453;28;20056;-84
2022/08/10 10:30:04;;;;;;;3.63;2.78;;;;;;;;;;10452654;28;20090;-83
2022/08/10 10:35:28;;;;;;;4.38;2.60;;;;;;;;;;10454178;28;20032;-84
2022/08/10 10:40:43;;;;;;;5.00;2.80;;;;;;;;;;10476517;28;20040;-82
2022/08/10 10:46:03;;;;;;;4.47;2.83;;;;;;;;;;10470990;28;20033;-84
2022/08/10 10:51:14;;;;;;;5.40;2.80;;;;;;;;;;10457608;28;20027;-84
2022/08/10 10:56:40;;;;;;;12.30;3.28;;;;;;;;;;10456951;28;20029;-83
2022/08/10 11:02:01;;;;;;;36.45;29.40;;;;;;;;;;10461578;28;20048;-84
2022/08/10 11:07:09;;;;;;;6.78;2.70;;;;;;;;;;10470087;28;20020;-84
2022/08/10 11:12:49;;;;;;;4.33;2.53;;;;;;;;;;10466849;28;20487;-85
2022/08/10 11:18:09;;;;;;;5.03;2.78;;;;;;;;;;10328327;28;20031;-85
2022/08/10 11:23:24;;;;;;;4.13;2.90;;;;;;;;;;10323447;28;20030;-84
2022/08/10 11:28:31;;;;;;;4.63;2.80;;;;;;;;;;10417347;28;20051;-86
2022/08/10 11:34:09;;;;;;;4.63;3.03;;;;;;;;;;10476591;28;20453;-85
2022/08/10 11:40:08;;;;;;;14.38;3.28;;;;;;;;;;10475092;28;20084;-85
2022/08/10 11:45:38;;;;;;;6.63;2.80;;;;;;;;;;10474942;28;20060;-85
2022/08/10 11:51:46;;;;;;;5.53;2.58;;;;;;;;;;10419423;28;20031;-84
2022/08/10 11:57:09;;;;;;;4.82;2.97;;;;;;;;;;10299081;28;20060;-86
2022/08/10 12:02:51;;;;;;;4.90;3.38;;;;;;;;;;10294924;28;20106;-84
2022/08/10 12:08:07;;;;;;;3.13;2.08;;;;;;;;;;10316192;28;20034;-85
2022/08/10 12:13:28;;;;;;;3.70;2.35;;;;;;;;;;10328787;28;20101;-85
2022/08/10 12:18:53;;;;;;;4.88;2.65;;;;;;;;;;10328179;28;20097;-84
2022/08/10 12:24:11;;;;;;;5.25;2.22;;;;;;;;;;10330723;28;20353;-84
2022/08/10 12:29:39;;;;;;;3.92;2.17;;;;;;;;;;10437184;28;20083;-84
2022/08/10 12:34:50;;;;;;;4.18;2.00;;;;;;;;;;10454437;28;20017;-85
2022/08/10 12:40:17;;;;;;;5.30;2.28;;;;;;;;;;10471173;28;20032;-83
2022/08/10 12:45:21;;;;;;;2.63;2.38;;;;;;;;;;10457904;28;20039;-83
2022/08/10 12:50:35;;;;;;;23.30;20.17;;;;;;;;;;10454215;28;20025;-84
2022/08/10 12:55:42;;;;;;;4.38;2.30;;;;;;;;;;10460133;28;20539;-85
2022/08/10 13:01:05;;;;;;;6.90;2.38;;;;;;;;;;10456641;28;20021;-83
2022/08/10 14:59:51;;;;;;;3.27;1.90;;;;;;;;;;10227542;29;20036;-82
2022/08/10 15:05:28;;;;;;;4.80;1.90;;;;;;;;;;10223607;29;20034;-82
2022/08/10 15:10:48;;;;;;;3.70;1.65;;;;;;;;;;10225808;29;20066;-82
2022/08/10 15:16:14;;;;;;;4.97;4.20;;;;;;;;;;10211690;29;20099;-82
2022/08/10 15:27:24;;;;;;;5.70;2.20;;;;;;;;;;10344024;28;20030;-83
2022/08/10 15:38:50;;;;;;;4.03;2.08;;;;;;;;;;10306690;28;20039;-81
2022/08/10 16:01:04;;;;;;;4.75;1.80;;;;;;;;;;10312297;28;20038;-83
2022/08/10 16:07:01;;;;;;;3.45;2.30;;;;;;;;;;10343330;28;20046;-83
2022/08/10 16:12:17;;;;;;;4.07;1.60;;;;;;;;;;10394346;28;20045;-80
